createdAt,value
2023-04-18T00:01:45.794Z,99727.63
2023-04-18T00:04:19.989Z,99739.56
2023-04-18T00:06:54.952Z,99723.75
2023-04-18T00:09:27.823Z,99732.19
2023-04-18T00:12:01.638Z,99732.91
2023-04-18T00:14:37.935Z,99731.25
2023-04-18T00:17:11.077Z,99726.47
2023-04-18T00:19:44.055Z,99727.13
2023-04-18T00:22:22.326Z,99726.06
2023-04-18T00:24:55.433Z,99726.44
2023-04-18T00:27:28.692Z,99723.06
2023-04-18T00:30:01.807Z,99728.66
2023-04-18T00:32:34.777Z,99725.88
2023-04-18T00:35:08.381Z,99732.19
2023-04-18T00:37:42.745Z,99726.59
2023-04-18T00:40:15.827Z,99722.53
2023-04-18T00:42:48.654Z,99722.19
2023-04-18T00:45:21.709Z,99718.81
2023-04-18T00:47:54.713Z,99718.81
2023-04-18T00:50:27.684Z,99721.59
2023-04-18T00:53:02.260Z,99721.09
2023-04-18T00:55:36.224Z,99717.50
2023-04-18T00:58:09.378Z,99710.75
2023-04-18T01:00:43.152Z,99716.31
2023-04-18T01:03:20.001Z,99709.63
2023-04-18T01:05:54.547Z,99712.91
2023-04-18T01:08:28.861Z,99702.63
2023-04-18T01:11:04.565Z,99702.75
2023-04-18T01:13:37.503Z,99699.88
2023-04-18T01:16:10.684Z,99685.97
2023-04-18T01:18:43.525Z,99693.22
2023-04-18T01:21:18.145Z,99684.34
2023-04-18T01:23:54.250Z,99690.16
2023-04-18T01:26:29.034Z,99690.69
2023-04-18T01:29:02.179Z,99688.13
2023-04-18T01:31:37.437Z,99690.06
2023-04-18T01:34:10.371Z,99694.03
2023-04-18T01:36:43.442Z,99694.88
2023-04-18T01:39:18.401Z,99694.50
2023-04-18T01:41:53.136Z,99694.16
2023-04-18T01:44:26.000Z,99695.53
2023-04-18T01:46:58.837Z,99697.13
2023-04-18T01:49:31.732Z,99695.41
2023-04-18T01:52:04.659Z,99692.91
2023-04-18T01:54:37.918Z,99687.03
2023-04-18T01:57:12.108Z,99685.38
2023-04-18T01:59:45.120Z,99680.19
2023-04-18T02:02:18.339Z,99674.72
2023-04-18T02:04:51.674Z,99674.94
2023-04-18T02:07:24.743Z,99678.19
2023-04-18T02:09:57.518Z,99673.22
2023-04-18T02:12:34.237Z,99679.84
2023-04-18T02:15:08.249Z,99676.78
2023-04-18T02:17:42.848Z,99675.59
2023-04-18T02:20:16.010Z,99688.31
2023-04-18T02:22:49.312Z,99680.59
2023-04-18T02:25:24.050Z,99676.88
2023-04-18T02:27:58.939Z,99678.97
2023-04-18T02:30:31.762Z,99677.75
2023-04-18T02:33:07.750Z,99676.97
2023-04-18T02:35:41.245Z,99676.38
2023-04-18T02:38:15.344Z,99675.56
2023-04-18T02:40:48.745Z,99672.16
2023-04-18T02:43:23.061Z,99666.09
2023-04-18T02:45:56.997Z,99669.34
2023-04-18T02:48:29.933Z,99671.53
2023-04-18T02:51:04.750Z,99673.09
2023-04-18T02:53:41.429Z,99656.75
2023-04-18T02:56:17.991Z,99669.03
2023-04-18T02:59:31.641Z,99670.63
2023-04-18T03:02:31.427Z,99678.25
2023-04-18T03:05:11.509Z,99676.72
2023-04-18T03:07:45.957Z,99668.03
2023-04-18T03:10:19.991Z,99677.16
2023-04-18T03:12:53.729Z,99675.09
2023-04-18T03:15:31.123Z,99674.56
2023-04-18T03:18:04.872Z,99676.94
2023-04-18T03:20:41.737Z,99678.47
2023-04-18T03:23:14.964Z,99681.59
2023-04-18T03:25:48.955Z,99676.78
2023-04-18T03:28:24.056Z,99679.94
2023-04-18T03:30:58.789Z,99674.66
2023-04-18T03:33:32.463Z,99677.91
2023-04-18T03:36:15.666Z,99688.47
2023-04-18T03:38:48.670Z,99683.78
2023-04-18T03:41:21.685Z,99681.44
2023-04-18T03:43:54.624Z,99692.16
2023-04-18T03:46:29.536Z,99690.88
2023-04-18T03:49:03.918Z,99686.63
2023-04-18T03:51:44.258Z,99685.00
2023-04-18T03:54:17.607Z,99681.88
2023-04-18T03:56:50.592Z,99681.75
2023-04-18T03:59:24.229Z,99685.88
2023-04-18T04:01:59.049Z,99684.91
2023-04-18T04:04:32.591Z,99681.06
2023-04-18T04:07:06.459Z,99685.13
2023-04-18T04:09:39.991Z,99685.66
2023-04-18T04:12:13.054Z,99683.91
2023-04-18T04:14:46.065Z,99680.06
2023-04-18T04:17:20.827Z,99680.94
2023-04-18T04:19:54.358Z,99678.00
2023-04-18T04:22:27.937Z,99691.75
2023-04-18T04:25:01.076Z,99689.34
2023-04-18T04:27:42.758Z,99687.88
2023-04-18T04:30:17.064Z,99689.50
2023-04-18T04:32:53.573Z,99686.72
2023-04-18T04:35:26.791Z,99689.22
2023-04-18T04:38:01.973Z,99693.19
2023-04-18T04:40:42.096Z,99696.72
2023-04-18T04:43:20.797Z,99698.78
2023-04-18T04:45:55.095Z,99696.81
2023-04-18T04:48:31.690Z,99704.06
2023-04-18T04:51:05.570Z,99708.75
2023-04-18T04:53:38.755Z,99700.59
2023-04-18T04:56:13.008Z,99705.09
2023-04-18T04:58:47.288Z,99707.50
2023-04-18T05:01:43.860Z,99711.31
2023-04-18T05:04:19.067Z,99709.88
2023-04-18T05:06:53.711Z,99721.75
2023-04-18T05:09:27.317Z,99714.66
2023-04-18T05:12:01.804Z,99709.41
2023-04-18T05:14:34.849Z,99714.88
2023-04-18T05:17:07.917Z,99707.47
2023-04-18T05:19:44.302Z,99719.03
2023-04-18T05:22:17.155Z,99714.97
2023-04-18T05:24:50.008Z,99719.31
2023-04-18T05:27:23.280Z,99714.53
2023-04-18T05:29:56.248Z,99720.09
2023-04-18T05:32:29.295Z,99719.47
2023-04-18T05:35:03.555Z,99729.47
2023-04-18T05:37:36.510Z,99724.19
2023-04-18T05:40:11.391Z,99726.69
2023-04-18T05:42:44.301Z,99737.31
2023-04-18T05:45:17.401Z,99727.47
2023-04-18T05:47:51.213Z,99732.97
2023-04-18T05:50:25.931Z,99735.72
2023-04-18T05:52:59.427Z,99735.41
2023-04-18T05:55:32.456Z,99739.09
2023-04-18T05:58:05.775Z,99745.84
2023-04-18T06:00:38.684Z,99739.84
2023-04-18T06:03:11.834Z,99732.22
2023-04-18T06:05:46.346Z,99740.22
2023-04-18T06:08:19.525Z,99746.72
2023-04-18T06:10:52.542Z,99747.09
2023-04-18T06:13:25.476Z,99749.09
2023-04-18T06:15:58.921Z,99745.13
2023-04-18T06:18:33.251Z,99756.28
2023-04-18T06:21:07.889Z,99755.81
2023-04-18T06:23:40.837Z,99764.94
2023-04-18T06:26:13.811Z,99765.44
2023-04-18T06:29:14.552Z,99761.84
2023-04-18T06:31:48.386Z,99771.00
2023-04-18T06:34:21.453Z,99764.28
2023-04-18T06:36:55.946Z,99765.09
2023-04-18T06:39:29.311Z,99771.03
2023-04-18T06:42:02.558Z,99773.03
2023-04-18T06:44:35.948Z,99774.59
2023-04-18T06:47:08.825Z,99771.84
2023-04-18T06:49:41.775Z,99766.28
2023-04-18T06:52:16.207Z,99766.28
2023-04-18T06:54:49.334Z,99767.47
2023-04-18T06:57:22.355Z,99772.22
2023-04-18T06:59:55.266Z,99768.22
2023-04-18T07:02:28.336Z,99780.97
2023-04-18T07:05:01.560Z,99776.56
2023-04-18T07:07:36.161Z,99773.00
2023-04-18T07:10:11.598Z,99772.97
2023-04-18T07:12:44.520Z,99774.56
2023-04-18T07:15:17.465Z,99782.00
2023-04-18T07:17:50.261Z,99778.00
2023-04-18T07:20:23.318Z,99780.00
2023-04-18T07:22:57.510Z,99780.66
2023-04-18T07:25:30.710Z,99784.63
2023-04-18T07:28:03.878Z,99785.47
2023-04-18T07:30:36.831Z,99780.47
2023-04-18T07:33:10.027Z,99781.25
2023-04-18T07:35:46.204Z,99778.00
2023-04-18T07:38:20.857Z,99777.25
2023-04-18T07:40:58.364Z,99764.16
2023-04-18T07:43:31.576Z,99772.88
2023-04-18T07:46:04.940Z,99781.25
2023-04-18T07:48:38.364Z,99775.53
2023-04-18T07:51:12.416Z,99772.31
2023-04-18T07:53:46.612Z,99775.84
2023-04-18T07:56:20.038Z,99782.84
2023-04-18T07:58:53.364Z,99774.53
2023-04-18T08:01:27.542Z,99781.09
2023-04-18T08:04:02.087Z,99785.03
2023-04-18T08:06:35.900Z,99781.34
2023-04-18T08:09:10.261Z,99795.00
2023-04-18T08:11:44.115Z,99791.78
2023-04-18T08:14:17.100Z,99789.75
2023-04-18T08:16:49.909Z,99785.88
2023-04-18T08:19:23.740Z,99786.97
2023-04-18T08:22:09.177Z,99786.06
2023-04-18T08:25:01.157Z,99779.84
2023-04-18T08:27:36.364Z,99775.59
2023-04-18T08:30:10.990Z,99782.28
2023-04-18T08:32:44.357Z,99782.06
2023-04-18T08:35:17.558Z,99788.69
2023-04-18T08:37:50.470Z,99776.09
2023-04-18T08:40:25.338Z,99785.44
2023-04-18T08:42:58.803Z,99783.88
2023-04-18T08:45:33.513Z,99790.56
2023-04-18T08:48:07.710Z,99784.66
2023-04-18T08:50:41.107Z,99784.94
2023-04-18T08:53:14.320Z,99789.97
2023-04-18T08:55:50.624Z,99793.00
2023-04-18T08:58:24.420Z,99798.53
2023-04-18T09:00:57.381Z,99800.53
2023-04-18T09:03:39.892Z,99801.94
2023-04-18T09:06:16.320Z,99799.25
2023-04-18T09:08:59.344Z,99801.00
2023-04-18T09:11:34.523Z,99803.97
2023-04-18T09:14:08.009Z,99797.78
2023-04-18T09:16:48.045Z,99796.34
2023-04-18T09:19:21.890Z,99792.31
2023-04-18T09:22:00.918Z,99783.00
2023-04-18T09:24:34.523Z,99779.75
2023-04-18T09:27:14.505Z,99783.34
2023-04-18T09:29:49.574Z,99790.78
2023-04-18T09:32:29.247Z,99806.63
2023-04-18T09:35:05.852Z,99798.34
2023-04-18T09:37:39.221Z,99804.13
2023-04-18T09:40:18.357Z,99796.34
2023-04-18T09:42:56.001Z,99804.84
2023-04-18T09:45:29.408Z,99796.25
2023-04-18T09:48:03.230Z,99792.44
2023-04-18T09:50:38.004Z,99796.22
2023-04-18T09:53:15.854Z,99795.75
2023-04-18T09:55:52.504Z,99804.22
2023-04-18T09:58:33.372Z,99795.41
2023-04-18T10:01:07.870Z,99793.22
2023-04-18T10:03:46.020Z,99792.72
2023-04-18T10:06:19.840Z,99793.81
2023-04-18T10:08:54.068Z,99795.94
2023-04-18T10:11:28.345Z,99795.47
2023-04-18T10:14:07.952Z,99792.06
2023-04-18T10:16:42.460Z,99784.63
2023-04-18T10:19:24.032Z,99790.13
2023-04-18T10:21:59.838Z,99792.66
2023-04-18T10:24:53.909Z,99785.22
2023-04-18T10:27:56.961Z,99791.16
2023-04-18T10:30:58.093Z,99781.94
2023-04-18T10:33:34.852Z,99777.53
2023-04-18T10:36:17.049Z,99774.41
2023-04-18T10:38:52.193Z,99774.94
2023-04-18T10:44:23.914Z,99777.03
2023-04-18T10:47:32.232Z,99765.44
2023-04-18T10:50:07.076Z,99766.28
2023-04-18T10:52:41.950Z,99760.91
2023-04-18T10:55:20.482Z,99759.88
2023-04-18T10:57:56.785Z,99766.91
2023-04-18T11:00:31.289Z,99753.78
2023-04-18T11:03:06.679Z,99761.44
2023-04-18T11:05:40.069Z,99759.25
2023-04-18T11:08:24.308Z,99762.69
2023-04-18T11:11:03.190Z,99750.56
2023-04-18T11:13:37.745Z,99752.84
2023-04-18T11:16:11.059Z,99747.50
2023-04-18T11:18:45.349Z,99748.88
2023-04-18T11:21:18.264Z,99750.03
2023-04-18T11:23:51.438Z,99748.81
2023-04-18T11:26:29.078Z,99738.03
2023-04-18T11:29:02.880Z,99747.22
2023-04-18T11:31:36.220Z,99735.81
2023-04-18T11:34:11.540Z,99731.41
2023-04-18T11:36:44.965Z,99735.44
2023-04-18T11:39:18.450Z,99732.13
2023-04-18T11:41:52.031Z,99725.22
2023-04-18T11:44:25.957Z,99730.84
2023-04-18T11:46:59.122Z,99732.88
2023-04-18T11:49:34.211Z,99734.03
2023-04-18T11:52:13.405Z,99725.88
2023-04-18T11:54:46.861Z,99731.88
2023-04-18T11:57:22.156Z,99722.41
2023-04-18T11:59:57.557Z,99725.78
2023-04-18T12:02:41.749Z,99730.69
2023-04-18T12:05:27.059Z,99731.41
2023-04-18T12:08:07.414Z,99738.41
2023-04-18T12:10:47.629Z,99736.34
2023-04-18T12:13:26.821Z,99734.47
2023-04-18T12:16:03.046Z,99732.53
2023-04-18T12:18:36.178Z,99728.25
2023-04-18T12:21:10.872Z,99728.22
2023-04-18T12:23:45.989Z,99736.78
2023-04-18T12:26:19.380Z,99728.34
2023-04-18T12:28:54.330Z,99724.28
2023-04-18T12:31:28.735Z,99720.81
2023-04-18T12:34:01.739Z,99718.84
2023-04-18T12:36:36.516Z,99722.00
2023-04-18T12:39:10.315Z,99723.72
2023-04-18T12:41:44.741Z,99724.81
2023-04-18T12:44:17.840Z,99721.69
2023-04-18T12:46:50.934Z,99724.91
2023-04-18T12:49:23.929Z,99719.28
2023-04-18T12:51:58.215Z,99722.97
2023-04-18T12:54:31.105Z,99714.66
2023-04-18T12:57:04.046Z,99712.28
2023-04-18T12:59:37.164Z,99708.09
2023-04-18T13:02:10.175Z,99706.75
2023-04-18T13:04:43.545Z,99712.41
2023-04-18T13:07:18.329Z,99713.84
2023-04-18T13:09:51.267Z,99716.91
2023-04-18T13:12:24.259Z,99711.03
2023-04-18T13:14:57.334Z,99707.59
2023-04-18T13:17:30.680Z,99706.69
2023-04-18T13:20:04.853Z,99710.16
2023-04-18T13:22:40.137Z,99705.97
2023-04-18T13:25:12.970Z,99700.19
2023-04-18T13:27:46.779Z,99713.19
2023-04-18T13:30:20.057Z,99702.53
2023-04-18T13:32:53.141Z,99697.59
2023-04-18T13:35:26.041Z,99698.72
2023-04-18T13:38:00.468Z,99693.72
2023-04-18T13:40:33.524Z,99697.50
2023-04-18T13:43:06.397Z,99700.34
2023-04-18T13:45:39.254Z,99697.81
2023-04-18T13:48:13.845Z,99689.22
2023-04-18T13:50:49.397Z,99695.31
2023-04-18T13:53:23.686Z,99697.19
2023-04-18T13:55:57.014Z,99693.72
2023-04-18T13:58:33.039Z,99700.00
2023-04-18T14:01:06.271Z,99700.84
2023-04-18T14:03:41.286Z,99692.97
2023-04-18T14:06:17.026Z,99697.75
2023-04-18T14:08:52.123Z,99705.94
2023-04-18T14:11:24.995Z,99701.34
2023-04-18T14:13:57.811Z,99706.06
2023-04-18T14:16:33.378Z,99703.94
2023-04-18T14:19:06.579Z,99704.03
2023-04-18T14:21:39.388Z,99708.00
2023-04-18T14:24:13.519Z,99706.69
2023-04-18T14:26:46.325Z,99711.38
2023-04-18T14:29:19.273Z,99707.75
2023-04-18T14:31:52.193Z,99705.38
2023-04-18T14:34:25.390Z,99712.31
2023-04-18T14:36:58.292Z,99708.63
2023-04-18T14:39:32.600Z,99713.72
2023-04-18T14:42:05.779Z,99714.53
2023-04-18T14:44:38.827Z,99705.34
2023-04-18T14:47:11.654Z,99712.13
2023-04-18T14:49:44.802Z,99715.69
2023-04-18T14:52:17.673Z,99716.63
2023-04-18T14:54:51.996Z,99709.19
2023-04-18T14:57:25.465Z,99709.91
2023-04-18T14:59:58.277Z,99714.41
2023-04-18T15:02:31.308Z,99716.78
2023-04-18T15:05:04.863Z,99723.53
2023-04-18T15:07:38.159Z,99728.50
2023-04-18T15:10:13.769Z,99722.50
2023-04-18T15:12:47.444Z,99720.22
2023-04-18T15:15:20.828Z,99724.84
2023-04-18T15:17:54.026Z,99726.16
2023-04-18T15:20:27.291Z,99721.53
2023-04-18T15:23:00.345Z,99730.44
2023-04-18T15:25:35.938Z,99734.63
2023-04-18T15:28:08.798Z,99738.25
2023-04-18T15:30:41.885Z,99731.69
2023-04-18T15:33:15.737Z,99735.94
2023-04-18T15:35:48.845Z,99742.44
2023-04-18T15:38:22.288Z,99744.28
2023-04-18T15:40:56.479Z,99745.28
2023-04-18T15:43:29.390Z,99747.47
2023-04-18T15:46:02.212Z,99747.03
2023-04-18T15:48:36.445Z,99744.88
2023-04-18T15:51:09.297Z,99739.78
2023-04-18T15:53:42.134Z,99742.72
2023-04-18T15:56:16.358Z,99742.94
2023-04-18T15:58:49.294Z,99747.59
2023-04-18T16:01:22.813Z,99748.94
2023-04-18T16:03:56.033Z,99746.22
2023-04-18T16:06:31.207Z,99747.94
2023-04-18T16:09:06.817Z,99751.56
2023-04-18T16:11:41.209Z,99762.53
2023-04-18T16:14:14.416Z,99756.69
2023-04-18T16:16:47.840Z,99755.06
2023-04-18T16:19:20.978Z,99753.41
2023-04-18T16:21:53.862Z,99752.84
2023-04-18T16:24:26.913Z,99756.81
2023-04-18T16:27:01.589Z,99761.44
2023-04-18T16:29:35.256Z,99760.44
2023-04-18T16:32:08.723Z,99759.59
2023-04-18T16:34:41.637Z,99762.34
2023-04-18T16:37:14.569Z,99763.03
2023-04-18T16:39:48.389Z,99774.59
2023-04-18T16:42:23.052Z,99773.66
2023-04-18T16:44:56.109Z,99768.63
2023-04-18T16:47:29.317Z,99767.28
2023-04-18T16:50:02.209Z,99778.78
2023-04-18T16:52:35.604Z,99777.19
2023-04-18T16:55:09.377Z,99774.03
2023-04-18T16:57:43.818Z,99775.31
2023-04-18T17:00:17.149Z,99776.19
2023-04-18T17:02:50.930Z,99780.44
2023-04-18T17:05:25.764Z,99785.16
2023-04-18T17:07:58.818Z,99788.88
2023-04-18T17:10:32.074Z,99791.56
2023-04-18T17:13:06.350Z,99782.84
2023-04-18T17:15:39.352Z,99797.00
2023-04-18T17:18:12.366Z,99787.97
2023-04-18T17:20:45.523Z,99794.63
2023-04-18T17:23:18.719Z,99796.38
2023-04-18T17:25:51.658Z,99787.31
2023-04-18T17:28:26.114Z,99789.13
2023-04-18T17:31:01.440Z,99795.47
2023-04-18T17:33:34.585Z,99798.25
2023-04-18T17:36:07.808Z,99798.63
2023-04-18T17:38:40.932Z,99800.13
2023-04-18T17:41:13.796Z,99798.59
2023-04-18T17:43:50.951Z,99797.78
2023-04-18T17:46:24.057Z,99800.44
2023-04-18T17:48:56.966Z,99803.25
2023-04-18T17:51:29.869Z,99805.84
2023-04-18T17:54:03.034Z,99810.25
2023-04-18T17:56:36.057Z,99807.13
2023-04-18T17:59:11.278Z,99820.81
2023-04-18T18:01:44.102Z,99817.81
2023-04-18T18:04:17.162Z,99816.19
2023-04-18T18:06:57.935Z,99822.91
2023-04-18T18:09:30.741Z,99828.22
2023-04-18T18:12:04.576Z,99821.84
2023-04-18T18:14:40.553Z,99827.78
2023-04-18T18:17:13.543Z,99829.03
2023-04-18T18:19:46.463Z,99825.97
2023-04-18T18:22:21.573Z,99830.56
2023-04-18T18:24:54.643Z,99834.25
2023-04-18T18:27:27.642Z,99834.66
2023-04-18T18:30:02.645Z,99840.81
2023-04-18T18:32:35.652Z,99842.03
2023-04-18T18:35:09.501Z,99846.91
2023-04-18T18:37:42.293Z,99856.00
2023-04-18T18:40:15.153Z,99841.94
2023-04-18T18:42:49.429Z,99856.44
2023-04-18T18:45:24.259Z,99861.56
2023-04-18T18:47:57.304Z,99868.78
2023-04-18T18:50:30.198Z,99872.88
2023-04-18T18:53:03.279Z,99877.63
2023-04-18T18:55:36.209Z,99869.66
2023-04-18T18:58:09.071Z,99878.78
2023-04-18T19:00:43.953Z,99889.28
2023-04-18T19:03:19.379Z,99882.81
2023-04-18T19:05:52.720Z,99889.28
2023-04-18T19:08:26.190Z,99894.50
2023-04-18T19:10:59.474Z,99887.81
2023-04-18T19:13:32.404Z,99892.63
2023-04-18T19:16:07.354Z,99892.22
2023-04-18T19:18:41.898Z,99894.25
2023-04-18T19:21:14.850Z,99899.41
2023-04-18T19:23:47.767Z,99893.94
2023-04-18T19:26:20.738Z,99893.06
2023-04-18T19:28:54.730Z,99887.94
2023-04-18T19:31:29.057Z,99881.47
2023-04-18T19:34:02.360Z,99894.31
2023-04-18T19:36:35.269Z,99891.63
2023-04-18T19:39:09.958Z,99895.97
2023-04-18T19:41:43.270Z,99891.25
2023-04-18T19:44:16.200Z,99889.22
2023-04-18T19:46:50.448Z,99894.84
2023-04-18T19:49:23.433Z,99894.84
2023-04-18T19:51:56.683Z,99894.38
2023-04-18T19:54:30.048Z,99899.56
2023-04-18T19:57:04.716Z,99897.16
2023-04-18T19:59:37.589Z,99896.78
2023-04-18T20:02:12.051Z,99896.72
2023-04-18T20:04:45.123Z,99897.25
2023-04-18T20:07:18.241Z,99897.53
2023-04-18T20:09:51.179Z,99891.59
2023-04-18T20:12:24.535Z,99901.50
2023-04-18T20:14:58.795Z,99894.41
2023-04-18T20:17:34.780Z,99896.34
2023-04-18T20:20:10.632Z,99898.69
2023-04-18T20:22:44.769Z,99896.38
2023-04-18T20:25:18.119Z,99904.28
2023-04-18T20:27:51.654Z,99895.94
2023-04-18T20:30:24.892Z,99908.75
2023-04-18T20:32:59.677Z,99904.75
2023-04-18T20:35:32.911Z,99901.56
2023-04-18T20:38:06.809Z,99897.97
2023-04-18T20:43:41.087Z,99905.16
2023-04-18T20:46:14.416Z,99916.16
2023-04-18T20:48:48.870Z,99915.03
2023-04-18T20:51:21.749Z,99911.53
2023-04-18T20:53:54.979Z,99913.19
2023-04-18T20:56:28.139Z,99906.34
2023-04-18T20:59:01.285Z,99912.25
2023-04-18T21:01:36.118Z,99910.66
2023-04-18T21:04:11.372Z,99908.69
2023-04-18T21:06:44.555Z,99906.34
2023-04-18T21:09:18.488Z,99909.22
2023-04-18T21:11:51.679Z,99901.66
2023-04-18T21:14:25.811Z,99911.53
2023-04-18T21:16:59.554Z,99911.91
2023-04-18T21:19:34.175Z,99911.16
2023-04-18T21:22:07.435Z,99907.22
2023-04-18T21:24:40.452Z,99907.19
2023-04-18T21:27:13.359Z,99897.63
2023-04-18T21:29:46.164Z,99898.94
2023-04-18T21:32:19.059Z,99897.72
2023-04-18T21:34:53.251Z,99896.06
2023-04-18T21:37:26.327Z,99896.06
2023-04-18T21:39:59.179Z,99898.03
2023-04-18T21:42:32.198Z,99893.22
2023-04-18T21:45:06.076Z,99901.66
2023-04-18T21:47:39.505Z,99897.63
2023-04-18T21:50:14.010Z,99896.38
2023-04-18T21:52:46.832Z,99898.81
2023-04-18T21:55:19.696Z,99904.88
2023-04-18T21:57:54.326Z,99890.88
2023-04-18T22:00:29.889Z,99893.69
2023-04-18T22:03:04.874Z,99895.34
2023-04-18T22:05:39.157Z,99894.06
2023-04-18T22:08:12.325Z,99894.19
2023-04-18T22:10:46.273Z,99890.91
2023-04-18T22:13:19.739Z,99892.47
2023-04-18T22:15:52.924Z,99881.66
2023-04-18T22:18:25.803Z,99882.22
2023-04-18T22:21:00.122Z,99875.28
2023-04-18T22:23:32.949Z,99873.75
2023-04-18T22:26:05.905Z,99868.22
2023-04-18T22:28:38.781Z,99865.47
2023-04-18T22:31:11.760Z,99862.22
2023-04-18T22:33:44.608Z,99865.94
2023-04-18T22:36:19.797Z,99868.22
2023-04-18T22:38:52.754Z,99869.06
2023-04-18T22:41:25.912Z,99868.69
2023-04-18T22:43:58.842Z,99871.41
2023-04-18T22:46:32.855Z,99872.66
2023-04-18T22:49:05.774Z,99880.09
2023-04-18T22:51:40.171Z,99887.88
2023-04-18T22:54:13.439Z,99895.00
2023-04-18T22:56:46.756Z,99888.13
2023-04-18T22:59:19.599Z,99889.78
2023-04-18T23:01:52.510Z,99892.22
2023-04-18T23:04:26.404Z,99885.81
2023-04-18T23:07:00.902Z,99883.47
2023-04-18T23:09:34.594Z,99888.19
2023-04-18T23:12:08.068Z,99887.09
2023-04-18T23:14:41.788Z,99887.44
2023-04-18T23:17:14.988Z,99883.84
2023-04-18T23:19:47.788Z,99887.06
2023-04-18T23:22:24.265Z,99884.28
2023-04-18T23:24:57.188Z,99885.81
2023-04-18T23:27:30.159Z,99887.44
2023-04-18T23:30:03.021Z,99880.66
2023-04-18T23:32:36.166Z,99881.16
2023-04-18T23:35:09.837Z,99883.97
2023-04-18T23:37:44.226Z,99886.75
2023-04-18T23:40:17.236Z,99881.16
2023-04-18T23:42:50.514Z,99876.03
2023-04-18T23:45:24.385Z,99876.41
2023-04-18T23:47:57.545Z,99867.69
2023-04-18T23:50:30.686Z,99871.25
2023-04-18T23:53:04.917Z,99866.84
2023-04-18T23:55:37.915Z,99864.50
2023-04-18T23:58:11.548Z,99867.66
